createdAt,value
2024-03-28T00:00:38.188Z,11.18
2024-03-28T00:03:43.219Z,11.31
2024-03-28T00:06:33.205Z,11.39
2024-03-28T00:09:22.578Z,11.44
2024-03-28T00:12:12.359Z,11.49
2024-03-28T00:15:02.447Z,11.51
2024-03-28T00:17:52.434Z,11.52
2024-03-28T00:20:42.106Z,11.51
2024-03-28T00:23:31.686Z,11.50
2024-03-28T00:26:21.260Z,11.48
2024-03-28T00:29:10.932Z,11.45
2024-03-28T00:32:01.126Z,11.40
2024-03-28T00:34:51.315Z,11.31
2024-03-28T00:37:41.201Z,11.23
2024-03-28T00:40:31.306Z,11.16
2024-03-28T00:43:21.787Z,11.10
2024-03-28T00:46:12.389Z,11.03
2024-03-28T00:49:02.374Z,10.95
2024-03-28T00:51:52.043Z,10.89
2024-03-28T00:54:41.721Z,10.82
2024-03-28T00:57:31.392Z,10.79
2024-03-28T01:00:21.383Z,10.75
2024-03-28T01:03:11.059Z,10.70
2024-03-28T01:06:01.186Z,10.65
2024-03-28T01:08:51.137Z,10.60
2024-03-28T01:11:40.922Z,10.57
2024-03-28T01:14:32.015Z,10.55
2024-03-28T01:17:22.105Z,10.54
2024-03-28T01:20:12.301Z,10.51
2024-03-28T01:23:02.667Z,10.49
2024-03-28T01:25:52.680Z,10.47
2024-03-28T01:28:44.613Z,10.47
2024-03-28T01:31:33.779Z,10.56
2024-03-28T01:34:24.374Z,10.68
2024-03-28T01:37:14.684Z,10.80
2024-03-28T01:40:05.142Z,10.90
2024-03-28T01:43:04.396Z,10.97
2024-03-28T01:45:54.255Z,11.00
2024-03-28T01:48:45.497Z,11.02
2024-03-28T01:51:35.032Z,11.03
2024-03-28T01:54:24.918Z,11.02
2024-03-28T01:57:15.172Z,10.99
2024-03-28T02:00:05.701Z,10.97
2024-03-28T02:03:02.424Z,10.96
2024-03-28T02:05:52.627Z,10.93
2024-03-28T02:08:42.000Z,10.93
2024-03-28T02:11:32.201Z,10.91
2024-03-28T02:14:21.879Z,10.91
2024-03-28T02:17:11.345Z,10.93
2024-03-28T02:20:00.709Z,10.97
2024-03-28T02:22:50.811Z,11.03
2024-03-28T02:25:40.174Z,11.09
2024-03-28T02:28:35.534Z,11.18
2024-03-28T02:31:25.188Z,11.32
2024-03-28T02:34:16.526Z,11.53
2024-03-28T02:37:06.150Z,11.73
2024-03-28T02:39:56.540Z,11.93
2024-03-28T02:42:45.913Z,12.12
2024-03-28T02:45:35.709Z,12.27
2024-03-28T02:48:25.686Z,12.38
2024-03-28T02:51:15.564Z,12.50
2024-03-28T02:54:05.234Z,12.58
2024-03-28T02:56:54.815Z,12.62
2024-03-28T02:59:44.795Z,12.66
2024-03-28T03:02:34.383Z,12.70
2024-03-28T03:05:23.953Z,12.74
2024-03-28T03:08:13.317Z,12.76
2024-03-28T03:11:03.623Z,12.79
2024-03-28T03:13:53.598Z,12.78
2024-03-28T03:16:43.278Z,12.78
2024-03-28T03:19:32.778Z,12.79
2024-03-28T03:22:23.549Z,12.79
2024-03-28T03:25:14.658Z,12.77
2024-03-28T03:28:23.497Z,12.73
2024-03-28T03:31:32.014Z,12.71
2024-03-28T03:34:36.530Z,12.70
2024-03-28T03:37:27.329Z,12.68
2024-03-28T03:40:17.136Z,12.67
2024-03-28T03:43:06.912Z,12.64
2024-03-28T03:45:56.978Z,12.64
2024-03-28T03:48:47.171Z,12.63
2024-03-28T03:51:37.060Z,12.61
2024-03-28T03:54:26.842Z,12.62
2024-03-28T03:57:17.234Z,12.61
2024-03-28T04:00:11.218Z,12.58
2024-03-28T04:03:00.771Z,12.53
2024-03-28T04:05:51.079Z,12.45
2024-03-28T04:08:40.545Z,12.36
2024-03-28T04:11:30.220Z,12.30
2024-03-28T04:14:20.522Z,12.27
2024-03-28T04:17:10.000Z,12.32
2024-03-28T04:19:59.668Z,12.41
2024-03-28T04:22:49.451Z,12.51
2024-03-28T04:25:38.925Z,12.58
2024-03-28T04:28:28.703Z,12.63
2024-03-28T04:31:18.594Z,12.67
2024-03-28T04:34:08.878Z,12.72
2024-03-28T04:36:58.854Z,12.74
2024-03-28T04:39:49.255Z,12.75
2024-03-28T04:42:38.831Z,12.83
2024-03-28T04:45:28.603Z,12.99
2024-03-28T04:48:17.872Z,13.14
2024-03-28T04:51:08.159Z,13.25
2024-03-28T04:53:58.047Z,13.31
2024-03-28T04:56:48.877Z,13.33
2024-03-28T04:59:38.628Z,13.34
2024-03-28T05:02:28.831Z,13.35
2024-03-28T05:05:18.504Z,13.37
2024-03-28T05:08:08.374Z,13.43
2024-03-28T05:10:58.256Z,13.46
2024-03-28T05:13:47.942Z,13.43
2024-03-28T05:16:38.626Z,13.38
2024-03-28T05:19:28.519Z,13.32
2024-03-28T05:22:18.097Z,13.27
2024-03-28T05:25:08.400Z,13.23
2024-03-28T05:27:58.172Z,13.21
2024-03-28T05:30:48.667Z,13.19
2024-03-28T05:33:38.762Z,13.15
2024-03-28T05:36:28.136Z,13.10
2024-03-28T05:39:20.873Z,13.04
2024-03-28T05:42:10.556Z,12.97
2024-03-28T05:45:00.017Z,12.89
2024-03-28T05:47:49.908Z,12.85
2024-03-28T05:50:40.093Z,12.84
2024-03-28T05:53:29.673Z,12.83
2024-03-28T05:56:20.269Z,12.82
2024-03-28T05:59:10.253Z,12.82
2024-03-28T06:02:00.200Z,12.82
2024-03-28T06:04:50.323Z,12.81
2024-03-28T06:07:40.270Z,12.82
2024-03-28T06:10:29.727Z,12.81
2024-03-28T06:13:19.574Z,12.81
2024-03-28T06:16:10.180Z,12.80
2024-03-28T06:19:00.347Z,12.81
2024-03-28T06:21:50.236Z,12.85
2024-03-28T06:24:40.314Z,12.92
2024-03-28T06:27:30.504Z,13.00
2024-03-28T06:30:27.047Z,13.13
2024-03-28T06:33:16.717Z,13.33
2024-03-28T06:36:07.675Z,13.82
2024-03-28T06:38:57.106Z,14.38
2024-03-28T06:41:47.399Z,14.50
2024-03-28T06:44:37.585Z,14.49
2024-03-28T06:47:27.270Z,14.42
2024-03-28T06:50:17.557Z,14.34
2024-03-28T06:53:07.235Z,14.30
2024-03-28T06:55:57.012Z,14.29
2024-03-28T06:58:46.385Z,14.33
2024-03-28T07:01:36.060Z,14.39
2024-03-28T07:04:25.950Z,14.44
2024-03-28T07:07:15.616Z,14.47
2024-03-28T07:10:05.713Z,14.47
2024-03-28T07:12:56.206Z,14.48
2024-03-28T07:15:45.882Z,14.55
2024-03-28T07:18:35.901Z,14.55
2024-03-28T07:21:25.855Z,14.47
2024-03-28T07:24:16.386Z,14.42
2024-03-28T07:27:06.429Z,14.37
2024-03-28T07:29:56.412Z,14.37
2024-03-28T07:32:49.882Z,14.44
2024-03-28T07:35:39.256Z,14.60
2024-03-28T07:38:29.032Z,15.01
2024-03-28T07:41:19.337Z,15.98
2024-03-28T07:44:09.619Z,16.80
2024-03-28T07:46:59.598Z,17.21
2024-03-28T07:49:49.173Z,17.72
2024-03-28T07:52:38.746Z,18.12
2024-03-28T07:55:28.121Z,17.73
2024-03-28T07:58:17.494Z,17.16
2024-03-28T08:01:10.167Z,16.72
2024-03-28T08:03:59.512Z,16.48
2024-03-28T08:06:49.292Z,16.47
2024-03-28T08:09:38.970Z,16.54
2024-03-28T08:12:29.456Z,16.46
2024-03-28T08:15:19.548Z,16.29
2024-03-28T08:18:09.270Z,16.14
2024-03-28T08:20:58.615Z,15.99
2024-03-28T08:23:48.782Z,15.92
2024-03-28T08:26:41.356Z,16.01
2024-03-28T08:29:31.311Z,16.60
2024-03-28T08:32:21.299Z,17.11
2024-03-28T08:35:14.981Z,17.37
2024-03-28T08:38:05.163Z,17.57
2024-03-28T08:40:55.043Z,17.74
2024-03-28T08:43:49.435Z,17.71
2024-03-28T08:46:39.736Z,17.65
2024-03-28T08:49:29.929Z,17.49
2024-03-28T08:52:20.510Z,17.46
2024-03-28T08:55:12.346Z,17.47
2024-03-28T08:58:02.024Z,17.67
2024-03-28T09:00:53.136Z,17.67
2024-03-28T09:03:43.847Z,17.45
2024-03-28T09:06:33.716Z,17.14
2024-03-28T09:09:24.819Z,16.90
2024-03-28T09:12:13.987Z,16.83
2024-03-28T09:15:05.207Z,16.89
2024-03-28T09:17:54.920Z,17.06
2024-03-28T09:20:46.938Z,17.27
2024-03-28T09:23:36.697Z,17.37
2024-03-28T09:26:26.569Z,17.26
2024-03-28T09:29:21.375Z,17.10
2024-03-28T09:32:10.948Z,16.89
2024-03-28T09:35:01.047Z,16.67
2024-03-28T09:37:50.608Z,16.39
2024-03-28T09:40:47.910Z,16.05
2024-03-28T09:43:37.436Z,15.74
2024-03-28T09:46:29.312Z,15.50
2024-03-28T09:49:18.938Z,15.39
2024-03-28T09:52:08.932Z,15.49
2024-03-28T09:54:58.806Z,15.90
2024-03-28T09:57:48.183Z,16.43
2024-03-28T10:00:38.651Z,16.99
2024-03-28T10:03:31.523Z,17.42
2024-03-28T10:06:21.815Z,17.63
2024-03-28T10:09:13.996Z,17.67
2024-03-28T10:12:14.096Z,17.68
2024-03-28T10:15:05.375Z,17.77
2024-03-28T10:18:01.871Z,17.89
2024-03-28T10:20:57.486Z,17.88
2024-03-28T10:23:47.329Z,17.73
2024-03-28T10:26:37.517Z,17.53
2024-03-28T10:29:32.460Z,17.37
2024-03-28T10:32:23.284Z,17.24
2024-03-28T10:35:13.209Z,17.17
2024-03-28T10:38:09.439Z,17.18
2024-03-28T10:41:02.188Z,17.40
2024-03-28T10:43:51.893Z,17.74
2024-03-28T10:46:41.547Z,18.17
2024-03-28T10:49:37.040Z,18.53
2024-03-28T10:52:39.441Z,18.87
2024-03-28T10:55:36.343Z,18.98
2024-03-28T10:58:26.163Z,19.04
2024-03-28T11:01:17.938Z,18.94
2024-03-28T11:04:07.045Z,18.80
2024-03-28T11:06:57.134Z,18.89
2024-03-28T11:09:46.715Z,19.15
2024-03-28T11:12:37.922Z,19.58
2024-03-28T11:15:28.119Z,19.94
2024-03-28T11:18:17.992Z,20.09
2024-03-28T11:21:07.668Z,20.06
2024-03-28T11:23:58.783Z,19.90
2024-03-28T11:26:58.502Z,19.61
2024-03-28T11:29:48.686Z,19.31
2024-03-28T11:32:38.292Z,19.19
2024-03-28T11:35:27.935Z,19.07
2024-03-28T11:38:17.511Z,18.82
2024-03-28T11:41:07.188Z,18.61
2024-03-28T11:43:56.867Z,18.44
2024-03-28T11:46:46.454Z,18.46
2024-03-28T11:49:36.180Z,18.51
2024-03-28T11:52:26.212Z,18.61
2024-03-28T11:55:15.786Z,18.92
2024-03-28T11:58:10.511Z,19.30
2024-03-28T12:01:04.246Z,19.71
2024-03-28T12:03:53.530Z,19.99
2024-03-28T12:06:43.813Z,20.16
2024-03-28T12:09:33.594Z,20.27
2024-03-28T12:12:23.583Z,20.26
2024-03-28T12:15:13.359Z,20.28
2024-03-28T12:18:03.595Z,20.39
2024-03-28T12:21:02.540Z,20.41
2024-03-28T12:23:52.118Z,20.34
2024-03-28T12:26:42.209Z,20.30
2024-03-28T12:29:31.987Z,20.21
2024-03-28T12:32:21.870Z,20.09
2024-03-28T12:35:13.139Z,19.91
2024-03-28T12:38:04.688Z,19.66
2024-03-28T12:40:55.721Z,19.58
2024-03-28T12:43:56.025Z,19.53
2024-03-28T12:46:46.336Z,19.45
2024-03-28T12:49:36.520Z,19.38
2024-03-28T12:52:26.165Z,19.32
2024-03-28T12:55:18.351Z,19.26
2024-03-28T12:58:08.640Z,19.24
2024-03-28T13:00:58.204Z,19.18
2024-03-28T13:03:52.789Z,19.06
2024-03-28T13:06:53.870Z,19.00
2024-03-28T13:09:45.563Z,18.95
2024-03-28T13:12:35.969Z,18.88
2024-03-28T13:49:58.521Z,18.25
2024-03-28T13:52:47.591Z,18.10
2024-03-28T13:55:37.593Z,17.98
2024-03-28T13:58:27.048Z,17.89
2024-03-28T14:01:18.056Z,17.80
2024-03-28T14:04:08.342Z,17.81
2024-03-28T14:06:57.615Z,17.79
2024-03-28T14:09:49.980Z,17.79
2024-03-28T14:12:41.384Z,17.83
2024-03-28T14:15:31.260Z,17.80
2024-03-28T14:18:21.037Z,17.73
2024-03-28T14:21:11.025Z,17.71
2024-03-28T14:24:00.801Z,17.68
2024-03-28T14:26:50.679Z,17.67
2024-03-28T14:29:40.464Z,17.68
2024-03-28T14:32:31.387Z,17.70
2024-03-28T14:35:21.253Z,17.73
2024-03-28T14:38:11.232Z,17.76
2024-03-28T14:41:05.734Z,17.79
2024-03-28T14:43:55.618Z,17.69
2024-03-28T14:46:45.210Z,17.64
2024-03-28T14:49:34.828Z,17.65
2024-03-28T14:52:24.941Z,17.65
2024-03-28T14:55:15.861Z,17.62
2024-03-28T14:58:05.326Z,17.62
2024-03-28T15:00:55.409Z,17.63
2024-03-28T15:03:45.907Z,17.63
2024-03-28T15:06:35.677Z,17.64
2024-03-28T15:09:25.366Z,17.62
2024-03-28T15:12:15.039Z,17.55
2024-03-28T15:15:05.128Z,17.46
2024-03-28T15:17:54.906Z,17.39
2024-03-28T15:20:44.382Z,17.33
2024-03-28T15:23:34.653Z,17.27
2024-03-28T15:26:24.964Z,17.17
2024-03-28T15:29:15.868Z,17.05
2024-03-28T15:32:15.160Z,16.93
2024-03-28T15:35:06.386Z,16.80
2024-03-28T15:37:57.502Z,16.68
2024-03-28T15:40:47.394Z,16.59
2024-03-28T15:43:37.367Z,16.52
2024-03-28T15:46:27.244Z,16.48
2024-03-28T15:49:16.829Z,16.47
2024-03-28T15:52:06.661Z,16.49
2024-03-28T15:54:57.105Z,16.50
2024-03-28T15:57:46.876Z,16.49
2024-03-28T16:00:36.595Z,16.48
2024-03-28T16:03:26.236Z,16.45
2024-03-28T16:06:17.492Z,16.40
2024-03-28T16:09:08.353Z,16.34
2024-03-28T16:11:58.641Z,16.27
2024-03-28T16:14:48.428Z,16.21
2024-03-28T16:17:38.404Z,16.16
2024-03-28T16:20:28.188Z,16.09
2024-03-28T16:23:18.512Z,16.02
2024-03-28T16:26:08.666Z,15.95
2024-03-28T16:29:06.743Z,15.87
2024-03-28T16:32:01.025Z,15.80
2024-03-28T16:34:50.829Z,15.74
2024-03-28T16:37:40.907Z,15.69
2024-03-28T16:40:30.281Z,15.65
2024-03-28T16:43:19.946Z,15.61
2024-03-28T16:46:09.823Z,15.57
2024-03-28T16:48:59.917Z,15.52
2024-03-28T16:51:50.104Z,15.47
2024-03-28T16:54:39.977Z,15.41
2024-03-28T16:57:29.365Z,15.34
2024-03-28T17:00:19.653Z,15.27
2024-03-28T17:03:09.324Z,15.20
2024-03-28T17:05:59.514Z,15.12
2024-03-28T17:08:49.506Z,15.05
2024-03-28T17:11:39.488Z,14.99
2024-03-28T17:14:29.268Z,14.93
2024-03-28T17:17:20.960Z,14.88
2024-03-28T17:20:11.491Z,14.84
2024-03-28T17:23:01.887Z,14.78
2024-03-28T17:25:51.965Z,14.71
2024-03-28T17:28:41.133Z,14.65
2024-03-28T17:31:31.115Z,14.60
2024-03-28T17:34:21.814Z,14.54
2024-03-28T17:37:11.801Z,14.47
2024-03-28T17:40:01.749Z,14.41
2024-03-28T17:42:52.540Z,14.36
2024-03-28T17:45:42.061Z,14.31
2024-03-28T17:48:31.742Z,14.26
2024-03-28T17:51:21.220Z,14.25
2024-03-28T17:54:10.989Z,14.25
2024-03-28T17:57:00.900Z,14.25
2024-03-28T17:59:50.246Z,14.25
2024-03-28T18:02:40.433Z,14.24
2024-03-28T18:05:31.860Z,14.22
2024-03-28T18:08:22.583Z,14.21
2024-03-28T18:11:12.434Z,14.21
2024-03-28T18:14:02.524Z,14.23
2024-03-28T18:16:52.131Z,14.25
2024-03-28T18:19:41.876Z,14.22
2024-03-28T18:22:31.868Z,14.15
2024-03-28T18:25:21.544Z,14.03
2024-03-28T18:28:11.420Z,13.88
2024-03-28T18:31:06.060Z,13.72
2024-03-28T18:33:56.719Z,13.60
2024-03-28T18:36:47.022Z,13.50
2024-03-28T18:39:36.995Z,13.40
2024-03-28T18:42:27.290Z,13.32
2024-03-28T18:45:17.061Z,13.24
2024-03-28T18:48:07.617Z,13.16
2024-03-28T18:50:57.240Z,13.09
2024-03-28T18:53:47.017Z,13.02
2024-03-28T18:56:37.015Z,12.97
2024-03-28T18:59:26.785Z,12.92
2024-03-28T19:02:16.260Z,12.89
2024-03-28T19:05:05.958Z,12.86
2024-03-28T19:07:55.404Z,12.81
2024-03-28T19:10:45.400Z,12.76
2024-03-28T19:13:37.316Z,12.71
2024-03-28T19:16:27.618Z,12.67
2024-03-28T19:19:17.702Z,12.63
2024-03-28T19:22:07.580Z,12.59
2024-03-28T19:24:57.468Z,12.52
2024-03-28T19:27:51.446Z,12.43
2024-03-28T19:30:45.239Z,12.36
2024-03-28T19:33:36.335Z,12.31
2024-03-28T19:36:29.390Z,12.28
2024-03-28T19:39:19.470Z,12.21
2024-03-28T19:42:09.048Z,12.15
2024-03-28T19:44:59.333Z,12.10
2024-03-28T19:47:50.638Z,12.04
2024-03-28T19:50:40.337Z,11.99
2024-03-28T19:53:30.218Z,11.92
2024-03-28T19:56:20.207Z,11.86
2024-03-28T19:59:09.769Z,11.82
2024-03-28T20:02:00.658Z,11.78
2024-03-28T20:05:12.266Z,11.74
2024-03-28T20:08:05.647Z,11.69
2024-03-28T20:10:58.180Z,11.62
2024-03-28T20:13:47.944Z,11.56
2024-03-28T20:16:37.748Z,11.52
2024-03-28T20:19:27.421Z,11.46
2024-03-28T20:22:16.790Z,11.40
2024-03-28T20:25:07.599Z,11.32
2024-03-28T20:27:57.266Z,11.28
2024-03-28T20:30:47.157Z,11.28
2024-03-28T20:33:37.234Z,11.31
2024-03-28T20:36:26.613Z,11.34
2024-03-28T20:39:16.590Z,11.33
2024-03-28T20:42:06.574Z,11.34
2024-03-28T20:44:59.024Z,11.32
2024-03-28T20:47:48.622Z,11.27
2024-03-28T20:50:40.469Z,11.22
2024-03-28T20:53:30.200Z,11.15
2024-03-28T20:56:21.448Z,11.10
2024-03-28T20:59:11.546Z,11.03
2024-03-28T21:02:00.772Z,10.96
2024-03-28T21:04:50.763Z,10.87
2024-03-28T21:07:59.071Z,10.78
2024-03-28T21:10:49.056Z,10.73
2024-03-28T21:13:38.421Z,10.65
2024-03-28T21:16:28.622Z,10.60
2024-03-28T21:19:19.519Z,10.55
2024-03-28T21:22:12.527Z,10.50
2024-03-28T21:25:02.257Z,10.45
2024-03-28T21:27:51.930Z,10.40
2024-03-28T21:30:41.400Z,10.36
2024-03-28T21:33:30.579Z,10.32
2024-03-28T21:36:20.556Z,10.31
2024-03-28T21:39:11.037Z,10.30
2024-03-28T21:42:00.935Z,10.29
2024-03-28T21:45:06.055Z,10.28
2024-03-28T21:48:03.235Z,10.25
2024-03-28T21:50:53.311Z,10.23
2024-03-28T21:53:43.404Z,10.21
2024-03-28T21:56:34.324Z,10.17
2024-03-28T21:59:23.789Z,10.13
2024-03-28T22:02:14.281Z,10.08
2024-03-28T22:05:04.358Z,10.04
2024-03-28T22:07:54.570Z,10.06
2024-03-28T22:10:43.830Z,10.09
2024-03-28T22:13:33.607Z,10.10
2024-03-28T22:16:23.590Z,10.10
2024-03-28T22:19:13.371Z,10.06
2024-03-28T22:22:03.248Z,10.05
2024-03-28T22:24:59.812Z,10.06
2024-03-28T22:27:51.204Z,10.08
2024-03-28T22:30:41.298Z,10.10
2024-03-28T22:33:31.279Z,10.13
2024-03-28T22:36:21.061Z,10.13
2024-03-28T22:39:10.628Z,10.12
2024-03-28T22:42:00.414Z,10.09
2024-03-28T22:44:49.878Z,10.03
2024-03-28T22:47:40.478Z,9.99
2024-03-28T22:50:30.167Z,9.97
2024-03-28T22:53:21.452Z,9.94
2024-03-28T22:56:11.315Z,9.92
2024-03-28T22:59:01.390Z,9.89
2024-03-28T23:01:50.911Z,9.85
2024-03-28T23:04:40.698Z,9.79
2024-03-28T23:07:30.284Z,9.73
2024-03-28T23:10:19.849Z,9.68
2024-03-28T23:13:09.529Z,9.63
2024-03-28T23:15:58.905Z,9.61
2024-03-28T23:18:49.086Z,9.62
2024-03-28T23:21:39.036Z,9.64
2024-03-28T23:24:29.153Z,9.66
2024-03-28T23:27:19.034Z,9.71
2024-03-28T23:30:09.567Z,9.76
2024-03-28T23:32:59.002Z,9.76
2024-03-28T23:35:48.785Z,9.74
2024-03-28T23:38:38.253Z,9.72
2024-03-28T23:41:28.552Z,9.69
2024-03-28T23:44:18.533Z,9.68
2024-03-28T23:47:08.111Z,9.64
2024-03-28T23:49:59.542Z,9.60
2024-03-28T23:52:48.995Z,9.55
2024-03-28T23:55:48.201Z,9.53
2024-03-28T23:58:37.881Z,9.52
